createdAt,value
2019-06-26T00:01:55.973Z,21.40
2019-06-26T00:04:24.447Z,21.30
2019-06-26T00:06:53.028Z,21.20
2019-06-26T00:09:21.608Z,21.10
2019-06-26T00:11:50.052Z,21.10
2019-06-26T00:14:18.508Z,21.10
2019-06-26T00:16:46.913Z,21.20
2019-06-26T00:19:15.362Z,21.10
2019-06-26T00:21:43.808Z,21.20
2019-06-26T00:24:12.269Z,21.20
2019-06-26T00:26:40.749Z,21.20
2019-06-26T00:29:09.186Z,21.10
2019-06-26T00:31:37.705Z,21.10
2019-06-26T00:34:06.192Z,21.10
2019-06-26T00:36:34.713Z,21.00
2019-06-26T00:39:03.991Z,20.90
2019-06-26T00:41:32.422Z,20.80
2019-06-26T00:44:00.913Z,20.80
2019-06-26T00:46:29.464Z,20.80
2019-06-26T00:48:57.914Z,20.80
2019-06-26T00:51:26.466Z,20.80
2019-06-26T00:53:54.959Z,20.80
2019-06-26T00:56:23.418Z,20.80
2019-06-26T00:58:51.890Z,20.80
2019-06-26T01:01:20.398Z,20.70
2019-06-26T01:03:50.468Z,20.60
2019-06-26T01:06:36.828Z,20.60
2019-06-26T01:09:06.268Z,20.60
2019-06-26T01:11:34.725Z,20.50
2019-06-26T01:14:03.161Z,20.40
2019-06-26T01:16:31.601Z,20.40
2019-06-26T01:19:00.038Z,20.40
2019-06-26T01:21:29.446Z,20.40
2019-06-26T01:23:58.117Z,20.30
2019-06-26T01:26:26.657Z,20.30
2019-06-26T01:28:55.220Z,20.30
2019-06-26T01:31:23.820Z,20.30
2019-06-26T01:33:52.250Z,20.30
2019-06-26T01:36:20.777Z,20.30
2019-06-26T01:38:49.206Z,20.40
2019-06-26T01:41:17.653Z,20.40
2019-06-26T01:43:46.096Z,20.50
2019-06-26T01:46:14.604Z,20.40
2019-06-26T01:48:43.022Z,20.30
2019-06-26T01:51:11.453Z,20.30
2019-06-26T01:53:39.873Z,20.30
2019-06-26T01:56:08.348Z,20.20
2019-06-26T01:58:36.762Z,20.10
2019-06-26T02:01:05.281Z,20.10
2019-06-26T02:03:33.708Z,20.10
2019-06-26T02:06:02.169Z,20.00
2019-06-26T02:08:30.701Z,20.00
2019-06-26T02:10:59.293Z,20.00
2019-06-26T02:13:27.737Z,20.00
2019-06-26T02:15:56.166Z,19.90
2019-06-26T02:18:35.148Z,19.90
2019-06-26T02:21:03.638Z,19.90
2019-06-26T02:23:32.068Z,19.80
2019-06-26T02:26:00.584Z,19.80
2019-06-26T02:28:29.043Z,19.80
2019-06-26T02:30:57.517Z,19.70
2019-06-26T02:33:26.042Z,19.70
2019-06-26T02:35:54.487Z,19.70
2019-06-26T02:38:23.001Z,19.60
2019-06-26T02:40:51.442Z,19.60
2019-06-26T02:43:19.953Z,19.60
2019-06-26T02:45:48.448Z,19.60
2019-06-26T02:48:17.066Z,19.60
2019-06-26T02:50:45.524Z,19.50
2019-06-26T02:53:14.011Z,19.50
2019-06-26T02:55:42.501Z,19.50
2019-06-26T02:58:10.956Z,19.50
2019-06-26T03:00:39.421Z,19.50
2019-06-26T03:03:07.977Z,19.50
2019-06-26T03:05:36.404Z,19.40
2019-06-26T03:08:05.123Z,19.40
2019-06-26T03:10:33.614Z,19.30
2019-06-26T03:13:02.071Z,19.30
2019-06-26T03:15:30.577Z,19.30
2019-06-26T03:17:59.092Z,19.20
2019-06-26T03:20:30.641Z,19.20
2019-06-26T03:22:59.057Z,19.20
2019-06-26T03:25:27.533Z,19.20
2019-06-26T03:27:55.956Z,19.20
2019-06-26T03:30:24.682Z,19.20
2019-06-26T03:32:53.101Z,19.20
2019-06-26T03:35:21.611Z,19.20
2019-06-26T03:37:50.040Z,19.10
2019-06-26T03:40:18.914Z,19.10
2019-06-26T03:42:47.361Z,19.20
2019-06-26T03:45:25.548Z,19.20
2019-06-26T03:47:46.336Z,19.20
2019-06-26T03:50:15.033Z,19.10
2019-06-26T03:52:43.450Z,19.10
2019-06-26T03:55:11.973Z,19.10
2019-06-26T03:57:40.386Z,19.10
2019-06-26T04:00:09.572Z,19.10
2019-06-26T04:02:38.067Z,19.10
2019-06-26T04:05:06.932Z,19.10
2019-06-26T04:07:35.382Z,19.10
2019-06-26T04:10:06.462Z,19.10
2019-06-26T04:12:34.898Z,19.10
2019-06-26T04:15:04.270Z,19.20
2019-06-26T04:17:32.708Z,19.20
2019-06-26T04:20:01.169Z,19.30
2019-06-26T04:22:29.634Z,19.30
2019-06-26T04:24:58.133Z,19.40
2019-06-26T04:27:26.578Z,19.40
2019-06-26T04:29:55.110Z,19.50
2019-06-26T04:32:23.562Z,19.60
2019-06-26T04:34:54.464Z,19.70
2019-06-26T04:37:22.156Z,20.00
2019-06-26T04:39:50.597Z,20.20
2019-06-26T04:42:19.012Z,20.30
2019-06-26T04:44:47.464Z,20.30
2019-06-26T04:47:15.991Z,20.30
2019-06-26T04:49:44.407Z,20.30
2019-06-26T04:52:12.868Z,20.30
2019-06-26T04:54:41.306Z,20.40
2019-06-26T04:57:09.767Z,20.50
2019-06-26T04:59:38.229Z,20.70
2019-06-26T05:02:07.526Z,20.80
2019-06-26T05:04:35.947Z,20.90
2019-06-26T05:07:04.372Z,21.00
2019-06-26T05:09:32.797Z,21.00
2019-06-26T05:12:01.249Z,21.10
2019-06-26T05:14:29.693Z,21.20
2019-06-26T05:16:58.122Z,21.30
2019-06-26T05:19:26.563Z,21.60
2019-06-26T05:21:55.023Z,21.90
2019-06-26T05:24:23.465Z,22.30
2019-06-26T05:26:51.954Z,22.60
2019-06-26T05:29:20.373Z,22.90
2019-06-26T05:31:48.798Z,23.10
2019-06-26T05:34:17.240Z,23.30
2019-06-26T05:36:45.686Z,23.40
2019-06-26T05:39:14.121Z,23.60
2019-06-26T05:41:42.558Z,23.70
2019-06-26T05:44:10.978Z,23.80
2019-06-26T05:46:39.414Z,24.10
2019-06-26T05:49:08.038Z,24.30
2019-06-26T05:51:36.608Z,24.40
2019-06-26T05:54:05.380Z,24.50
2019-06-26T05:56:33.977Z,24.60
2019-06-26T05:59:02.588Z,24.50
2019-06-26T06:01:31.096Z,24.70
2019-06-26T06:03:59.525Z,24.90
2019-06-26T06:06:41.149Z,25.30
2019-06-26T06:08:58.252Z,25.80
2019-06-26T06:11:26.682Z,26.10
2019-06-26T06:13:55.117Z,26.10
2019-06-26T06:16:23.526Z,26.40
2019-06-26T06:18:52.034Z,26.60
2019-06-26T06:21:20.468Z,26.60
2019-06-26T06:23:48.977Z,26.80
2019-06-26T06:26:17.391Z,26.80
2019-06-26T06:28:46.011Z,26.80
2019-06-26T06:31:14.555Z,26.80
2019-06-26T06:33:42.973Z,26.90
2019-06-26T06:36:11.404Z,27.20
2019-06-26T06:38:39.861Z,27.60
2019-06-26T06:41:08.405Z,27.70
2019-06-26T06:43:36.836Z,27.90
2019-06-26T06:46:05.434Z,28.10
2019-06-26T06:48:33.912Z,28.30
2019-06-26T06:51:02.466Z,28.30
2019-06-26T06:53:30.925Z,28.30
2019-06-26T06:55:59.376Z,28.30
2019-06-26T06:58:30.164Z,28.10
2019-06-26T07:00:58.035Z,28.20
2019-06-26T07:03:26.450Z,28.10
2019-06-26T07:05:54.991Z,28.10
2019-06-26T07:08:23.395Z,28.10
2019-06-26T07:10:51.893Z,28.00
2019-06-26T07:13:20.335Z,28.00
2019-06-26T07:15:48.788Z,28.00
2019-06-26T07:18:17.432Z,27.90
2019-06-26T07:20:45.888Z,27.80
2019-06-26T07:23:14.316Z,27.70
2019-06-26T07:25:42.808Z,27.80
2019-06-26T07:28:11.384Z,27.90
2019-06-26T07:30:40.072Z,27.90
2019-06-26T07:33:08.564Z,28.00
2019-06-26T07:35:37.013Z,28.00
2019-06-26T07:38:05.490Z,28.10
2019-06-26T07:40:33.969Z,28.10
2019-06-26T07:43:02.485Z,28.10
2019-06-26T07:45:30.996Z,28.20
2019-06-26T07:47:59.482Z,28.30
2019-06-26T07:50:27.956Z,28.40
2019-06-26T07:52:56.448Z,28.40
2019-06-26T07:55:25.239Z,28.40
2019-06-26T07:57:53.829Z,28.30
2019-06-26T08:00:22.702Z,28.50
2019-06-26T08:02:51.213Z,28.70
2019-06-26T08:05:19.705Z,28.70
2019-06-26T08:07:48.137Z,28.80
2019-06-26T08:10:16.637Z,28.80
2019-06-26T08:12:45.083Z,28.80
2019-06-26T08:15:13.960Z,28.90
2019-06-26T08:17:59.068Z,29.00
2019-06-26T08:20:14.321Z,29.00
2019-06-26T08:22:42.783Z,29.00
2019-06-26T08:25:11.576Z,29.00
2019-06-26T08:27:40.017Z,29.10
2019-06-26T08:30:09.486Z,29.20
2019-06-26T08:32:37.977Z,29.30
2019-06-26T08:35:07.392Z,29.20
2019-06-26T08:37:35.804Z,29.30
2019-06-26T08:40:05.961Z,29.30
2019-06-26T08:42:36.841Z,29.40
2019-06-26T08:45:08.693Z,29.40
2019-06-26T08:47:37.197Z,29.40
2019-06-26T08:50:09.375Z,29.50
2019-06-26T08:52:37.891Z,29.50
2019-06-26T08:55:07.953Z,29.60
2019-06-26T08:57:36.401Z,29.70
2019-06-26T09:00:10.488Z,29.70
2019-06-26T09:02:38.934Z,29.80
2019-06-26T09:05:08.428Z,30.00
2019-06-26T09:07:36.966Z,30.20
2019-06-26T09:10:07.614Z,30.30
2019-06-26T09:12:36.054Z,30.30
2019-06-26T09:15:06.423Z,30.40
2019-06-26T09:17:35.365Z,30.50
2019-06-26T09:20:05.814Z,30.60
2019-06-26T09:22:34.238Z,30.70
2019-06-26T09:25:19.858Z,30.60
2019-06-26T09:27:33.082Z,30.70
2019-06-26T09:30:01.518Z,30.70
2019-06-26T09:32:29.925Z,30.70
2019-06-26T09:34:58.400Z,30.80
2019-06-26T09:37:26.819Z,31.00
2019-06-26T09:39:55.258Z,31.10
2019-06-26T09:42:24.123Z,31.10
2019-06-26T09:44:52.597Z,31.20
2019-06-26T09:47:21.073Z,31.30
2019-06-26T09:49:49.522Z,31.20
2019-06-26T09:52:17.985Z,31.20
2019-06-26T09:54:46.490Z,31.20
2019-06-26T09:57:14.909Z,31.30
2019-06-26T09:59:43.573Z,31.20
2019-06-26T10:02:11.992Z,31.30
2019-06-26T10:04:40.448Z,31.30
2019-06-26T10:07:09.002Z,31.30
2019-06-26T10:09:37.457Z,31.40
2019-06-26T10:12:06.099Z,31.40
2019-06-26T10:14:47.285Z,31.50
2019-06-26T10:17:04.727Z,31.70
2019-06-26T10:19:33.145Z,31.90
2019-06-26T10:22:01.657Z,31.90
2019-06-26T10:24:30.103Z,32.00
2019-06-26T10:26:58.687Z,32.00
2019-06-26T10:29:27.085Z,32.10
2019-06-26T10:31:55.647Z,32.20
2019-06-26T10:34:24.063Z,32.10
2019-06-26T10:36:52.785Z,32.10
2019-06-26T10:39:21.307Z,32.10
2019-06-26T10:41:49.763Z,32.00
2019-06-26T10:44:18.352Z,32.00
2019-06-26T10:46:46.876Z,32.00
2019-06-26T10:49:26.607Z,32.10
2019-06-26T10:51:45.498Z,32.40
2019-06-26T10:54:13.950Z,32.50
2019-06-26T10:56:42.374Z,32.50
2019-06-26T10:59:10.797Z,32.60
2019-06-26T11:01:39.319Z,32.80
2019-06-26T11:04:07.746Z,32.90
2019-06-26T11:06:37.322Z,32.90
2019-06-26T11:09:08.032Z,32.80
2019-06-26T11:11:36.823Z,32.90
2019-06-26T11:14:06.137Z,32.80
2019-06-26T11:16:34.587Z,32.70
2019-06-26T11:19:03.006Z,32.60
2019-06-26T11:21:31.434Z,32.70
2019-06-26T11:23:59.869Z,32.70
2019-06-26T11:26:28.296Z,32.80
2019-06-26T11:28:56.763Z,33.00
2019-06-26T11:31:25.163Z,33.10
2019-06-26T11:33:53.664Z,33.20
2019-06-26T11:36:22.205Z,33.20
2019-06-26T11:38:50.707Z,33.20
2019-06-26T11:41:19.135Z,33.40
2019-06-26T11:43:47.583Z,33.40
2019-06-26T11:46:16.051Z,33.50
2019-06-26T11:48:44.498Z,33.50
2019-06-26T11:51:12.997Z,33.60
2019-06-26T11:53:41.525Z,33.60
2019-06-26T11:56:10.498Z,33.50
2019-06-26T11:58:38.932Z,33.60
2019-06-26T12:01:07.541Z,33.70
2019-06-26T12:03:36.085Z,33.80
2019-06-26T12:06:18.021Z,33.80
2019-06-26T12:08:35.185Z,33.70
2019-06-26T12:11:03.633Z,33.70
2019-06-26T12:13:33.502Z,33.80
2019-06-26T12:16:02.523Z,33.70
2019-06-26T12:18:31.106Z,33.60
2019-06-26T12:20:59.534Z,33.70
2019-06-26T12:23:27.955Z,33.80
2019-06-26T12:25:56.457Z,34.00
2019-06-26T12:28:24.885Z,34.00
2019-06-26T12:30:53.408Z,33.90
2019-06-26T12:33:21.908Z,34.10
2019-06-26T12:35:50.346Z,34.20
2019-06-26T12:38:18.781Z,34.10
2019-06-26T12:40:47.273Z,34.20
2019-06-26T12:43:15.694Z,34.20
2019-06-26T12:45:44.140Z,34.30
2019-06-26T12:48:15.954Z,34.30
2019-06-26T12:50:42.822Z,34.20
2019-06-26T12:53:11.239Z,34.20
2019-06-26T12:55:39.668Z,34.20
2019-06-26T12:58:13.873Z,34.30
2019-06-26T13:00:38.281Z,34.50
2019-06-26T13:03:06.699Z,34.50
2019-06-26T13:05:35.153Z,34.50
2019-06-26T13:08:03.694Z,34.40
2019-06-26T13:10:39.263Z,34.40
2019-06-26T13:13:02.281Z,34.20
2019-06-26T13:15:30.758Z,34.00
2019-06-26T13:18:01.429Z,34.10
2019-06-26T13:20:29.398Z,34.20
2019-06-26T13:22:57.895Z,34.40
2019-06-26T13:25:26.350Z,34.30
2019-06-26T13:27:54.914Z,34.30
2019-06-26T13:30:32.339Z,34.20
2019-06-26T13:33:00.781Z,34.30
2019-06-26T13:35:29.266Z,34.20
2019-06-26T13:37:57.721Z,34.20
2019-06-26T13:40:26.169Z,34.30
2019-06-26T13:42:54.657Z,34.40
2019-06-26T13:45:23.087Z,34.60
2019-06-26T13:47:51.525Z,34.70
2019-06-26T13:50:20.403Z,34.60
2019-06-26T13:52:48.829Z,34.70
2019-06-26T13:55:17.505Z,34.80
2019-06-26T13:57:45.962Z,34.80
2019-06-26T14:00:16.432Z,34.90
2019-06-26T14:02:44.989Z,35.10
2019-06-26T14:05:13.783Z,35.10
2019-06-26T14:07:42.228Z,35.20
2019-06-26T14:10:10.880Z,35.10
2019-06-26T14:12:39.334Z,34.90
2019-06-26T14:15:09.081Z,35.00
2019-06-26T14:17:37.567Z,34.90
2019-06-26T14:20:07.226Z,34.90
2019-06-26T14:22:35.778Z,35.00
2019-06-26T14:25:08.503Z,35.00
2019-06-26T14:27:36.972Z,35.20
2019-06-26T14:30:08.141Z,35.50
2019-06-26T14:32:36.591Z,35.60
2019-06-26T14:35:06.144Z,35.50
2019-06-26T14:37:34.597Z,35.40
2019-06-26T14:40:03.821Z,35.50
2019-06-26T14:42:32.265Z,35.60
2019-06-26T14:45:00.781Z,35.80
2019-06-26T14:47:29.222Z,35.90
2019-06-26T14:49:57.730Z,36.00
2019-06-26T14:52:26.210Z,35.90
2019-06-26T14:54:54.672Z,35.90
2019-06-26T14:57:25.951Z,36.00
2019-06-26T14:59:53.287Z,36.20
2019-06-26T15:02:23.011Z,36.30
2019-06-26T15:04:51.534Z,36.50
2019-06-26T15:07:19.954Z,36.60
2019-06-26T15:09:48.397Z,36.80
2019-06-26T15:12:16.885Z,36.90
2019-06-26T15:14:45.803Z,37.00
2019-06-26T15:17:14.262Z,37.00
2019-06-26T15:19:42.733Z,37.00
2019-06-26T15:22:11.239Z,36.80
2019-06-26T15:24:39.690Z,36.70
2019-06-26T15:27:08.105Z,36.70
2019-06-26T15:29:36.612Z,36.60
2019-06-26T15:32:05.046Z,36.40
2019-06-26T15:34:33.542Z,36.40
2019-06-26T15:37:02.190Z,36.40
2019-06-26T15:39:30.755Z,36.20
2019-06-26T15:41:59.203Z,36.20
2019-06-26T15:44:27.692Z,36.30
2019-06-26T15:46:56.160Z,36.20
2019-06-26T15:49:24.621Z,36.60
2019-06-26T15:51:53.109Z,37.20
2019-06-26T15:54:21.602Z,37.50
2019-06-26T15:56:50.061Z,38.00
2019-06-26T15:59:18.566Z,38.30
2019-06-26T16:01:47.037Z,38.50
2019-06-26T16:04:15.534Z,39.20
2019-06-26T16:06:44.060Z,40.40
2019-06-26T16:09:12.509Z,41.00
2019-06-26T16:11:40.989Z,41.00
2019-06-26T16:14:09.413Z,41.40
2019-06-26T16:16:39.505Z,41.70
2019-06-26T16:19:18.458Z,41.40
2019-06-26T16:21:46.897Z,41.60
2019-06-26T16:24:15.674Z,41.30
2019-06-26T16:26:44.171Z,41.50
2019-06-26T16:29:12.649Z,41.20
2019-06-26T16:31:41.336Z,40.80
2019-06-26T16:34:10.074Z,40.30
2019-06-26T16:36:38.591Z,39.90
2019-06-26T16:39:08.062Z,39.40
2019-06-26T16:41:36.983Z,38.80
2019-06-26T16:44:06.446Z,38.20
2019-06-26T16:46:35.270Z,37.90
2019-06-26T16:49:03.949Z,37.70
2019-06-26T16:51:32.393Z,37.50
2019-06-26T16:54:00.931Z,37.30
2019-06-26T16:56:29.506Z,37.00
2019-06-26T16:58:58.079Z,36.80
2019-06-26T17:01:26.607Z,36.70
2019-06-26T17:03:55.073Z,36.60
2019-06-26T17:06:23.514Z,36.60
2019-06-26T17:08:52.031Z,36.40
2019-06-26T17:11:20.730Z,36.10
2019-06-26T17:13:49.144Z,35.90
2019-06-26T17:16:17.593Z,35.80
2019-06-26T17:18:46.025Z,35.70
2019-06-26T17:21:14.464Z,35.60
2019-06-26T17:23:42.884Z,35.60
2019-06-26T17:26:11.344Z,35.70
2019-06-26T17:28:39.921Z,36.10
2019-06-26T17:31:08.390Z,36.50
2019-06-26T17:33:37.017Z,37.10
2019-06-26T17:36:05.467Z,37.10
2019-06-26T17:38:35.121Z,37.30
2019-06-26T17:41:03.642Z,37.00
2019-06-26T17:43:32.122Z,36.50
2019-06-26T17:46:00.657Z,36.20
2019-06-26T17:48:29.211Z,35.90
2019-06-26T17:50:57.770Z,35.50
2019-06-26T17:53:26.242Z,35.10
2019-06-26T17:55:54.745Z,34.80
2019-06-26T17:58:25.393Z,34.50
2019-06-26T18:00:53.335Z,34.30
2019-06-26T18:03:21.789Z,33.90
2019-06-26T18:05:50.214Z,33.40
2019-06-26T18:08:18.677Z,32.90
2019-06-26T18:10:47.374Z,32.70
2019-06-26T18:13:15.833Z,32.50
2019-06-26T18:15:44.277Z,32.30
2019-06-26T18:18:12.723Z,32.10
2019-06-26T18:20:41.150Z,32.00
2019-06-26T18:23:09.700Z,31.70
2019-06-26T18:25:38.156Z,31.50
2019-06-26T18:28:06.595Z,31.40
2019-06-26T18:30:35.026Z,31.20
2019-06-26T18:33:03.559Z,30.90
2019-06-26T18:35:32.031Z,30.70
2019-06-26T18:38:00.487Z,30.60
2019-06-26T18:40:28.999Z,30.60
2019-06-26T18:42:57.466Z,30.40
2019-06-26T18:45:25.916Z,30.10
2019-06-26T18:47:54.418Z,29.90
2019-06-26T18:50:22.953Z,29.70
2019-06-26T18:52:51.480Z,29.60
2019-06-26T18:55:19.943Z,29.40
2019-06-26T18:57:48.454Z,29.20
2019-06-26T19:00:17.453Z,29.20
2019-06-26T19:02:46.025Z,29.20
2019-06-26T19:05:14.798Z,29.30
2019-06-26T19:07:43.416Z,29.30
2019-06-26T19:10:13.208Z,29.10
2019-06-26T19:12:41.702Z,29.00
2019-06-26T19:15:10.709Z,28.70
2019-06-26T19:17:42.299Z,28.60
2019-06-26T19:20:09.855Z,28.40
2019-06-26T19:22:38.281Z,28.20
2019-06-26T19:25:07.375Z,28.10
2019-06-26T19:27:35.897Z,28.00
2019-06-26T19:30:06.819Z,27.80
2019-06-26T19:32:37.506Z,27.80
2019-06-26T19:35:18.558Z,27.70
2019-06-26T19:37:36.011Z,27.60
2019-06-26T19:40:08.748Z,27.50
2019-06-26T19:42:36.528Z,27.50
2019-06-26T19:45:07.384Z,27.60
2019-06-26T19:47:35.889Z,27.60
2019-06-26T19:50:06.475Z,27.50
2019-06-26T19:52:34.945Z,27.40
2019-06-26T19:55:04.362Z,27.20
2019-06-26T19:57:32.836Z,27.20
2019-06-26T20:00:01.290Z,27.20
2019-06-26T20:02:29.788Z,27.10
2019-06-26T20:04:58.238Z,27.10
2019-06-26T20:07:26.752Z,27.00
2019-06-26T20:09:55.309Z,26.90
2019-06-26T20:12:23.796Z,26.80
2019-06-26T20:14:52.238Z,26.80
2019-06-26T20:17:20.756Z,26.80
2019-06-26T20:19:49.287Z,26.80
2019-06-26T20:22:17.725Z,26.70
2019-06-26T20:24:48.749Z,26.60
2019-06-26T20:27:17.184Z,26.50
2019-06-26T20:29:45.601Z,26.40
2019-06-26T20:32:14.152Z,26.30
2019-06-26T20:34:42.577Z,26.30
2019-06-26T20:37:11.024Z,26.30
2019-06-26T20:39:39.473Z,26.20
2019-06-26T20:42:07.992Z,26.20
2019-06-26T20:44:36.479Z,26.20
2019-06-26T20:47:04.917Z,26.10
2019-06-26T20:49:33.365Z,26.00
2019-06-26T20:52:01.796Z,26.00
2019-06-26T20:54:30.223Z,25.90
2019-06-26T20:56:58.716Z,25.90
2019-06-26T20:59:27.156Z,25.80
2019-06-26T21:01:55.606Z,25.70
2019-06-26T21:04:24.033Z,25.70
2019-06-26T21:06:52.474Z,25.70
2019-06-26T21:09:20.916Z,25.70
2019-06-26T21:11:49.358Z,25.60
2019-06-26T21:14:17.797Z,25.60
2019-06-26T21:16:46.247Z,25.60
2019-06-26T21:19:14.660Z,25.50
2019-06-26T21:21:43.180Z,25.50
2019-06-26T21:24:11.634Z,25.50
2019-06-26T21:26:40.142Z,25.40
2019-06-26T21:29:08.583Z,25.40
2019-06-26T21:31:37.052Z,25.40
2019-06-26T21:34:05.550Z,25.30
2019-06-26T21:36:34.010Z,25.30
2019-06-26T21:39:05.718Z,25.30
2019-06-26T21:41:32.645Z,25.20
2019-06-26T21:44:01.086Z,25.10
2019-06-26T21:46:29.583Z,25.10
2019-06-26T21:48:58.073Z,25.10
2019-06-26T21:51:26.493Z,25.10
2019-06-26T21:53:55.037Z,25.10
2019-06-26T21:56:23.475Z,25.00
2019-06-26T21:58:51.935Z,24.90
2019-06-26T22:01:20.361Z,24.90
2019-06-26T22:03:49.159Z,24.80
2019-06-26T22:06:17.949Z,24.70
2019-06-26T22:08:46.465Z,24.70
2019-06-26T22:11:14.916Z,24.70
2019-06-26T22:13:43.433Z,24.70
2019-06-26T22:16:11.862Z,24.60
2019-06-26T22:18:40.408Z,24.60
2019-06-26T22:21:08.833Z,24.60
2019-06-26T22:23:37.300Z,24.60
2019-06-26T22:26:05.885Z,24.50
2019-06-26T22:28:34.390Z,24.50
2019-06-26T22:31:02.969Z,24.40
2019-06-26T22:33:31.432Z,24.40
2019-06-26T22:35:59.906Z,24.50
2019-06-26T22:38:28.353Z,24.50
2019-06-26T22:40:56.782Z,24.60
2019-06-26T22:43:25.419Z,24.50
2019-06-26T22:45:53.889Z,24.50
2019-06-26T22:48:22.345Z,24.50
2019-06-26T22:50:50.896Z,24.50
2019-06-26T22:53:19.372Z,24.60
2019-06-26T22:55:47.790Z,24.60
2019-06-26T22:58:16.258Z,24.60
2019-06-26T23:00:47.705Z,24.50
2019-06-26T23:03:14.945Z,24.50
2019-06-26T23:05:43.386Z,24.30
2019-06-26T23:08:11.793Z,24.30
2019-06-26T23:10:40.261Z,24.30
2019-06-26T23:13:09.721Z,24.30
2019-06-26T23:15:38.406Z,24.50
2019-06-26T23:18:06.881Z,24.60
2019-06-26T23:20:35.417Z,24.50
2019-06-26T23:23:03.827Z,24.50
2019-06-26T23:25:32.362Z,24.40
2019-06-26T23:28:00.773Z,24.30
2019-06-26T23:30:29.237Z,24.20
2019-06-26T23:32:57.662Z,24.00
2019-06-26T23:35:26.162Z,23.90
2019-06-26T23:37:55.903Z,23.70
2019-06-26T23:40:24.442Z,23.70
2019-06-26T23:42:52.911Z,23.70
2019-06-26T23:45:21.435Z,23.80
2019-06-26T23:47:49.868Z,23.70
2019-06-26T23:50:18.392Z,23.60
2019-06-26T23:52:46.881Z,23.40
2019-06-26T23:55:15.610Z,23.30
2019-06-26T23:57:57.940Z,23.30
